Time;durP1;ratioP1;P1;durP2;ratioP2;P2;SDS_P1;SDS_P2;PMS_P1;PMS_P2;Temp;Humidity;BMP_temperature;BMP_pressure;BME280_temperature;BME280_humidity;BME280_pressure;Samples;Min_cycle;Max_cycle;Signal;HPM_P1;HPM_P2
2022/04/27 00:02:54;;;;;;;6.38;3.25;;;;;;;5.14;71.15;96168.13;10360240;28;98373;-67
2022/04/27 00:07:59;;;;;;;4.03;2.90;;;;;;;5.21;70.70;96168.50;10363514;28;98109;-67
2022/04/27 00:13:02;;;;;;;4.18;3.15;;;;;;;5.21;70.63;96164.13;10344400;28;97392;-68
2022/04/27 00:18:05;;;;;;;3.83;2.83;;;;;;;5.16;70.45;96171.41;10341121;28;96801;-67
2022/04/27 00:23:09;;;;;;;4.47;3.60;;;;;;;5.10;70.49;96174.47;10345524;28;98217;-67
2022/04/27 00:28:12;;;;;;;5.40;3.28;;;;;;;5.01;70.37;96165.66;10335055;28;97463;-67
2022/04/27 00:33:15;;;;;;;6.50;3.42;;;;;;;4.93;71.11;96175.75;10340365;28;98292;-67
2022/04/27 00:38:19;;;;;;;5.07;2.92;;;;;;;4.78;72.02;96169.94;10339092;28;100492;-67
2022/04/27 00:43:36;;;;;;;4.93;3.30;;;;;;;4.54;72.02;96168.22;10350973;28;96955;-67
2022/04/27 00:48:40;;;;;;;7.10;3.10;;;;;;;4.48;71.99;96168.66;10338547;28;97228;-67
2022/04/27 00:53:45;;;;;;;9.18;3.92;;;;;;;4.38;73.05;96172.84;10340149;28;97183;-67
2022/04/27 00:58:48;;;;;;;4.65;3.55;;;;;;;4.36;72.33;96172.97;10364731;28;96773;-67
2022/04/27 01:03:54;;;;;;;5.18;3.50;;;;;;;4.29;72.41;96168.34;10353464;28;96736;-68
2022/04/27 01:08:58;;;;;;;8.70;3.72;;;;;;;4.27;73.08;96170.22;10344616;28;97096;-67
2022/04/27 01:14:01;;;;;;;5.28;2.97;;;;;;;4.26;72.71;96168.56;10364917;28;96961;-67
2022/04/27 01:19:04;;;;;;;5.97;3.15;;;;;;;4.24;72.67;96170.44;10363163;28;96898;-67
2022/04/27 01:24:13;;;;;;;6.38;3.38;;;;;;;4.20;71.71;96175.81;10341946;28;96840;-67
2022/04/27 01:29:17;;;;;;;3.63;2.70;;;;;;;4.19;71.82;96175.94;10341877;28;97717;-67
2022/04/27 01:34:20;;;;;;;6.10;3.70;;;;;;;4.00;73.22;96168.66;10349431;28;96884;-68
2022/04/27 01:39:24;;;;;;;5.40;3.55;;;;;;;3.88;72.88;96169.53;10346408;28;98529;-67
2022/04/27 01:44:27;;;;;;;5.32;3.58;;;;;;;3.76;73.82;96176.38;10355602;28;96849;-67
2022/04/27 01:49:30;;;;;;;5.85;4.00;;;;;;;3.51;74.51;96177.28;10336498;28;96803;-67
2022/04/27 01:54:34;;;;;;;5.57;3.88;;;;;;;3.51;75.41;96177.28;10345897;28;96806;-67
2022/04/27 01:59:40;;;;;;;8.13;3.85;;;;;;;3.46;74.69;96177.59;10342444;28;101031;-67
2022/04/27 02:04:43;;;;;;;4.40;3.47;;;;;;;3.40;75.14;96185.78;10342563;28;96881;-67
2022/04/27 02:09:47;;;;;;;6.28;3.80;;;;;;;3.39;75.74;96174.59;10354894;28;96749;-67
2022/04/27 02:14:50;;;;;;;6.22;3.70;;;;;;;3.36;75.69;96190.31;10350087;28;97039;-67
2022/04/27 02:19:52;;;;;;;4.50;3.60;;;;;;;3.41;75.43;96188.25;10342354;28;99413;-67
2022/04/27 02:24:57;;;;;;;3.92;3.53;;;;;;;3.28;75.90;96191.78;10359729;28;97795;-67
2022/04/27 02:30:00;;;;;;;6.82;3.50;;;;;;;3.32;75.46;96191.44;10344193;28;96990;-67
2022/04/27 02:35:03;;;;;;;3.95;3.35;;;;;;;3.32;75.18;96193.19;10349493;28;96922;-67
2022/04/27 02:40:09;;;;;;;4.30;3.35;;;;;;;3.32;75.39;96201.78;10350221;28;98202;-67
2022/04/27 02:45:12;;;;;;;4.20;3.10;;;;;;;3.28;75.27;96200.34;10339701;28;96992;-67
2022/04/27 02:55:36;;;;;;;4.53;3.33;;;;;;;3.24;74.89;96204.88;10344096;28;97715;-67
2022/04/27 03:00:39;;;;;;;3.65;2.55;;;;;;;3.19;74.21;96213.88;10336548;28;97133;-67
2022/04/27 03:05:43;;;;;;;5.00;3.90;;;;;;;2.91;75.91;96215.72;10338858;28;96976;-67
2022/04/27 03:10:48;;;;;;;4.53;3.63;;;;;;;2.77;76.18;96211.44;10339364;28;96846;-67
2022/04/27 03:15:51;;;;;;;4.97;3.92;;;;;;;2.81;76.01;96210.31;10341592;28;96748;-67
2022/04/27 03:20:54;;;;;;;4.57;3.75;;;;;;;2.77;75.95;96213.19;10345605;28;97502;-67
2022/04/27 03:25:58;;;;;;;4.18;3.08;;;;;;;2.65;76.54;96215.66;10356759;28;98527;-67
2022/04/27 03:31:01;;;;;;;5.28;3.65;;;;;;;2.67;76.81;96213.78;10343263;28;97063;-67
2022/04/27 03:36:04;;;;;;;4.35;2.63;;;;;;;2.68;76.08;96215.47;10343905;28;97864;-67
2022/04/27 03:41:09;;;;;;;4.13;2.60;;;;;;;2.70;75.42;96217.91;10344361;28;97312;-67
2022/04/27 03:46:11;;;;;;;3.78;3.00;;;;;;;2.73;75.59;96222.06;10347762;28;96858;-67
2022/04/27 03:51:22;;;;;;;6.65;3.45;;;;;;;2.50;76.44;96229.53;10345964;28;96881;-67
2022/04/27 03:56:26;;;;;;;4.65;3.95;;;;;;;2.38;77.10;96227.75;10343706;28;96915;-67
2022/04/27 04:01:29;;;;;;;4.40;3.70;;;;;;;2.44;77.19;96217.03;10342151;28;96748;-68
2022/04/27 04:06:32;;;;;;;4.93;3.90;;;;;;;2.50;76.83;96219.22;10341715;28;96907;-67
2022/04/27 04:11:37;;;;;;;5.15;4.03;;;;;;;2.56;76.97;96220.56;10346656;28;98780;-67
2022/04/27 04:16:39;;;;;;;4.28;3.20;;;;;;;2.56;77.00;96213.66;10348630;28;96842;-67
2022/04/27 04:21:42;;;;;;;4.97;3.10;;;;;;;2.54;77.17;96220.66;10364528;28;97882;-67
2022/04/27 04:32:09;;;;;;;4.18;2.97;;;;;;;2.50;76.82;96238.09;10348034;28;96815;-67
2022/04/27 04:37:12;;;;;;;4.32;3.30;;;;;;;2.41;76.60;96237.88;10337551;28;98948;-67
2022/04/27 04:42:16;;;;;;;4.85;3.55;;;;;;;2.26;76.91;96239.66;10339109;28;98207;-67
2022/04/27 04:47:19;;;;;;;5.13;3.60;;;;;;;2.16;77.34;96239.38;10334941;28;100152;-67
2022/04/27 04:52:22;;;;;;;4.85;3.42;;;;;;;2.23;78.23;96242.41;10347398;28;97253;-67
2022/04/27 04:57:26;;;;;;;6.15;3.28;;;;;;;2.36;77.28;96250.22;10355162;28;96917;-67
2022/04/27 05:02:31;;;;;;;4.45;3.35;;;;;;;2.42;77.02;96247.22;10339094;28;97043;-67
2022/04/27 05:07:35;;;;;;;4.75;3.65;;;;;;;2.49;76.86;96253.66;10335552;28;96821;-67
2022/04/27 05:12:39;;;;;;;3.63;2.50;;;;;;;2.55;76.69;96255.84;10342728;28;97314;-67
2022/04/27 05:17:42;;;;;;;3.40;2.92;;;;;;;2.65;76.00;96261.22;10335718;28;99053;-67
2022/04/27 05:22:44;;;;;;;4.60;3.00;;;;;;;2.74;76.25;96270.16;10359102;28;97227;-67
2022/04/27 05:27:49;;;;;;;3.58;2.70;;;;;;;2.87;75.74;96283.91;10343111;28;99641;-67
2022/04/27 05:32:52;;;;;;;8.38;3.38;;;;;;;3.01;75.32;96278.66;10350186;28;96786;-67
2022/04/27 05:37:55;;;;;;;4.47;3.42;;;;;;;3.10;76.01;96276.41;10357445;28;96749;-67
2022/04/27 05:42:59;;;;;;;4.75;3.50;;;;;;;3.20;76.09;96280.03;10352868;28;97218;-67
2022/04/27 05:48:03;;;;;;;4.90;3.22;;;;;;;3.36;74.97;96278.13;10352995;28;97024;-68
2022/04/27 05:53:06;;;;;;;6.68;3.85;;;;;;;3.55;75.15;96282.03;10366893;28;97019;-68
2022/04/27 05:58:10;;;;;;;5.15;3.10;;;;;;;3.68;74.41;96288.03;10340569;28;96924;-67
2022/04/27 06:03:13;;;;;;;4.93;2.97;;;;;;;3.74;74.27;96287.63;10349669;28;98317;-68
2022/04/27 06:08:17;;;;;;;5.10;3.28;;;;;;;3.85;73.67;96293.78;10339136;28;97015;-68
2022/04/27 06:13:21;;;;;;;4.13;3.67;;;;;;;4.09;74.10;96297.28;10339243;28;96896;-68
2022/04/27 06:18:24;;;;;;;5.55;3.42;;;;;;;4.23;72.53;96295.47;10347541;28;100376;-68
2022/04/27 06:23:27;;;;;;;5.03;3.88;;;;;;;4.25;72.68;96288.47;10344672;28;96915;-68
2022/04/27 06:28:32;;;;;;;4.47;3.90;;;;;;;4.44;73.49;96294.00;10345376;28;98000;-68
2022/04/27 06:33:34;;;;;;;5.00;3.95;;;;;;;4.74;72.87;96293.56;10355225;28;97642;-68
2022/04/27 06:38:38;;;;;;;6.10;4.15;;;;;;;5.01;72.24;96299.44;10340468;28;97221;-68
2022/04/27 06:43:49;;;;;;;5.20;4.43;;;;;;;5.20;72.03;96294.56;10343565;28;98027;-68
2022/04/27 06:48:52;;;;;;;5.97;5.05;;;;;;;5.13;71.69;96294.19;10336366;28;97407;-68
2022/04/27 06:53:55;;;;;;;7.60;6.15;;;;;;;5.25;71.80;96292.47;10340410;28;97105;-68
2022/04/27 06:58:59;;;;;;;7.18;5.50;;;;;;;5.58;71.72;96293.47;10339593;28;98964;-68
2022/04/27 07:04:08;;;;;;;8.68;6.10;;;;;;;5.70;71.64;96292.56;10337570;28;97296;-68
2022/04/27 07:09:11;;;;;;;11.32;6.97;;;;;;;5.85;71.90;96302.69;10359204;28;96811;-68
2022/04/27 07:14:16;;;;;;;8.80;5.90;;;;;;;6.06;71.07;96301.03;10351682;28;96804;-68
2022/04/27 07:19:20;;;;;;;8.73;6.72;;;;;;;6.24;71.14;96303.16;10342968;28;97597;-68
2022/04/27 07:24:24;;;;;;;8.60;5.70;;;;;;;6.40;71.21;96301.03;10344694;28;96881;-68
2022/04/27 07:29:28;;;;;;;8.80;6.60;;;;;;;6.57;70.91;96304.03;10344936;28;97126;-68
2022/04/27 07:34:31;;;;;;;6.63;5.50;;;;;;;6.75;70.90;96305.19;10341546;28;96782;-68
2022/04/27 07:39:34;;;;;;;8.32;6.93;;;;;;;6.88;70.45;96304.22;10344341;28;96783;-68
2022/04/27 07:44:39;;;;;;;8.40;6.70;;;;;;;7.14;70.27;96310.72;10344861;28;96979;-68
2022/04/27 07:49:42;;;;;;;9.45;6.95;;;;;;;7.31;70.09;96301.56;10339619;28;96929;-68
2022/04/27 07:54:45;;;;;;;8.07;7.00;;;;;;;7.60;69.26;96306.16;10351838;28;96919;-68
2022/04/27 07:59:49;;;;;;;10.20;7.63;;;;;;;7.77;69.30;96318.56;10344431;28;96981;-68
2022/04/27 08:04:52;;;;;;;9.32;7.43;;;;;;;7.89;69.10;96306.31;10341582;28;96783;-68
2022/04/27 08:09:55;;;;;;;10.35;7.10;;;;;;;8.14;68.25;96309.44;10341913;28;96621;-68
2022/04/27 08:14:59;;;;;;;9.13;7.50;;;;;;;8.34;68.03;96302.50;10343836;28;96926;-68
2022/04/27 08:25:23;;;;;;;12.07;7.53;;;;;;;8.59;67.30;96310.81;10339807;28;97345;-68
2022/04/27 08:30:27;;;;;;;9.80;7.45;;;;;;;8.75;67.14;96305.09;10342075;28;96863;-68
2022/04/27 08:35:32;;;;;;;9.73;7.00;;;;;;;8.97;67.21;96304.84;10344645;28;96705;-68
2022/04/27 08:40:37;;;;;;;9.38;8.00;;;;;;;9.16;66.24;96318.81;10337656;28;96813;-68
2022/04/27 08:45:43;;;;;;;9.38;7.80;;;;;;;9.35;66.05;96311.03;10342002;28;96866;-68
2022/04/27 08:50:46;;;;;;;8.95;7.30;;;;;;;9.58;65.89;96314.16;10342469;28;96917;-68
2022/04/27 08:55:52;;;;;;;10.18;7.18;;;;;;;9.62;65.78;96314.72;10338903;28;97376;-68
2022/04/27 09:00:56;;;;;;;12.15;9.02;;;;;;;9.67;65.62;96300.28;10339979;28;96671;-68
2022/04/27 09:06:01;;;;;;;13.35;8.85;;;;;;;9.89;65.45;96302.69;10342357;28;96999;-68
2022/04/27 09:11:15;;;;;;;11.52;9.13;;;;;;;10.04;65.22;96296.06;10339659;28;96903;-68
2022/04/27 09:16:22;;;;;;;10.05;8.10;;;;;;;10.10;64.97;96295.50;10337724;28;97094;-68
2022/04/27 09:21:25;;;;;;;10.63;8.57;;;;;;;10.26;64.86;96296.69;10343291;28;96896;-68
2022/04/27 09:26:28;;;;;;;10.65;8.15;;;;;;;10.37;64.92;96297.31;10341957;28;97219;-68
2022/04/27 09:31:34;;;;;;;11.73;8.70;;;;;;;10.53;65.00;96290.59;10335925;28;96776;-68
2022/04/27 09:36:37;;;;;;;12.70;9.63;;;;;;;10.75;64.07;96295.44;10341161;28;96993;-68
2022/04/27 09:41:46;;;;;;;11.23;9.05;;;;;;;10.88;63.44;96295.09;10340858;28;96989;-68
2022/04/27 09:46:50;;;;;;;11.68;8.60;;;;;;;10.99;63.72;96297.47;10337321;28;99638;-68
2022/04/27 09:51:55;;;;;;;11.40;8.50;;;;;;;11.13;63.54;96297.94;10339470;28;97195;-68
2022/04/27 09:56:59;;;;;;;12.32;8.98;;;;;;;11.26;63.15;96297.53;10342557;28;100053;-68
2022/04/27 10:02:06;;;;;;;13.50;9.10;;;;;;;11.42;63.17;96286.44;10339433;28;97079;-68
2022/04/27 10:07:13;;;;;;;11.27;8.68;;;;;;;11.50;62.48;96294.34;10337454;28;97236;-68
2022/04/27 10:12:17;;;;;;;12.43;8.95;;;;;;;11.58;61.64;96301.44;10340730;28;96914;-68
2022/04/27 10:17:21;;;;;;;13.38;9.13;;;;;;;11.67;61.91;96297.91;10339878;28;96846;-69
2022/04/27 10:22:30;;;;;;;10.63;8.27;;;;;;;11.85;61.56;96287.38;10335838;28;97335;-68
2022/04/27 10:27:37;;;;;;;11.15;8.70;;;;;;;11.89;61.66;96286.09;10346732;28;97129;-68
2022/04/27 10:32:44;;;;;;;9.25;7.75;;;;;;;12.03;60.98;96285.53;10348572;28;96892;-68
2022/04/27 10:37:50;;;;;;;11.27;8.05;;;;;;;12.07;60.72;96288.66;10343217;28;96779;-68
2022/04/27 10:42:53;;;;;;;9.15;7.43;;;;;;;12.25;60.22;96283.34;10344929;28;96770;-68
2022/04/27 10:47:57;;;;;;;11.60;8.15;;;;;;;12.44;60.69;96277.84;10346712;28;96818;-68
2022/04/27 10:53:16;;;;;;;10.50;7.93;;;;;;;12.49;59.49;96270.34;10344052;28;97628;-68
2022/04/27 10:58:34;;;;;;;10.45;7.88;;;;;;;12.61;59.09;96277.91;10342333;28;96949;-68
2022/04/27 11:03:43;;;;;;;9.13;7.13;;;;;;;12.87;58.76;96275.16;10345826;28;96856;-68
2022/04/27 11:09:00;;;;;;;8.15;6.90;;;;;;;13.01;57.75;96265.88;10345469;28;97052;-68
2022/04/27 11:14:06;;;;;;;8.98;6.15;;;;;;;13.00;57.63;96266.88;10345159;28;96927;-68
2022/04/27 11:19:16;;;;;;;7.47;5.97;;;;;;;13.05;57.14;96272.47;10340268;28;96780;-68
2022/04/27 11:24:21;;;;;;;6.68;5.80;;;;;;;13.19;57.46;96260.50;10345704;28;96994;-69
2022/04/27 11:29:26;;;;;;;6.53;5.00;;;;;;;13.35;56.03;96260.50;10345479;28;97815;-69
2022/04/27 11:34:31;;;;;;;6.85;5.18;;;;;;;13.37;55.30;96257.72;10340630;28;99816;-68
2022/04/27 11:39:38;;;;;;;6.05;5.00;;;;;;;13.57;55.40;96261.63;10344301;28;97019;-68
2022/04/27 11:44:41;;;;;;;7.03;5.28;;;;;;;13.75;54.50;96252.75;10344444;28;96862;-68
2022/04/27 11:49:56;;;;;;;6.30;4.60;;;;;;;14.00;54.54;96249.09;10342708;28;99653;-69
2022/04/27 11:55:02;;;;;;;7.65;5.72;;;;;;;14.12;54.56;96256.59;10342184;28;97064;-69
2022/04/27 12:00:06;;;;;;;7.57;5.30;;;;;;;14.10;54.59;96253.31;10344623;28;97492;-68
2022/04/27 12:05:11;;;;;;;9.03;6.60;;;;;;;14.31;53.84;96253.56;10342050;28;97162;-68
2022/04/27 12:10:14;;;;;;;5.45;4.57;;;;;;;14.62;52.63;96247.53;10339270;28;96825;-69
2022/04/27 12:15:25;;;;;;;6.72;5.13;;;;;;;14.80;52.86;96249.06;10344467;28;97001;-69
2022/04/27 12:20:33;;;;;;;8.73;6.72;;;;;;;14.83;52.51;96238.22;10343347;28;96815;-69
2022/04/27 12:25:49;;;;;;;8.02;5.53;;;;;;;14.88;53.21;96235.88;10339212;28;96848;-69
2022/04/27 12:30:53;;;;;;;7.30;5.70;;;;;;;15.01;51.44;96241.38;10354842;28;96868;-69
2022/04/27 12:41:30;;;;;;;5.93;4.50;;;;;;;15.21;52.00;96235.63;10343813;28;97046;-69
2022/04/27 12:46:33;;;;;;;6.32;4.85;;;;;;;15.58;50.69;96226.97;10337912;28;96917;-69
2022/04/27 12:51:38;;;;;;;7.65;5.07;;;;;;;15.34;49.22;96225.34;10341654;28;96953;-69
2022/04/27 12:56:45;;;;;;;5.25;4.10;;;;;;;15.60;49.95;96226.75;10341344;28;97033;-69
2022/04/27 13:01:58;;;;;;;8.07;4.75;;;;;;;15.59;48.95;96225.16;10338726;28;96889;-69
2022/04/27 13:07:03;;;;;;;5.85;3.95;;;;;;;15.85;49.24;96227.34;10338852;28;96836;-69
2022/04/27 13:12:08;;;;;;;4.65;3.05;;;;;;;16.19;49.82;96224.16;10343421;28;96935;-69
2022/04/27 13:17:18;;;;;;;5.78;3.67;;;;;;;16.30;48.96;96220.25;10341609;28;98627;-69
2022/04/27 13:22:23;;;;;;;6.38;4.28;;;;;;;16.46;48.23;96208.66;10337243;28;96876;-69
2022/04/27 13:27:31;;;;;;;5.43;3.08;;;;;;;16.29;48.45;96207.25;10341298;28;96834;-69
2022/04/27 13:32:44;;;;;;;4.00;3.50;;;;;;;16.53;47.83;96214.00;10342390;28;96872;-69
2022/04/27 13:37:49;;;;;;;5.03;3.38;;;;;;;16.76;47.64;96204.16;10337512;28;96935;-69
2022/04/27 13:42:53;;;;;;;4.15;3.00;;;;;;;16.91;47.29;96201.47;10339524;28;96927;-69
2022/04/27 13:47:57;;;;;;;4.97;3.40;;;;;;;17.22;45.88;96200.31;10340924;28;97321;-69
2022/04/27 13:53:01;;;;;;;6.88;3.45;;;;;;;17.37;45.02;96200.25;10339102;28;96889;-69
2022/04/27 13:58:04;;;;;;;5.05;3.00;;;;;;;17.61;44.29;96195.53;10340974;28;96967;-69
2022/04/27 14:03:08;;;;;;;4.55;3.13;;;;;;;17.72;43.99;96193.19;10347981;28;97280;-69
2022/04/27 14:08:14;;;;;;;3.78;3.15;;;;;;;17.96;42.92;96191.13;10347451;28;96772;-69
2022/04/27 14:13:17;;;;;;;4.70;2.78;;;;;;;18.10;42.65;96194.66;10342675;28;96781;-69
2022/04/27 14:18:20;;;;;;;3.42;2.60;;;;;;;18.36;42.28;96199.22;10349199;28;97105;-69
2022/04/27 14:23:24;;;;;;;3.47;2.60;;;;;;;18.60;41.84;96186.47;10348643;28;97007;-69
2022/04/27 14:28:27;;;;;;;2.70;2.28;;;;;;;18.95;40.67;96191.66;10344822;28;96915;-69
2022/04/27 14:33:30;;;;;;;4.30;3.38;;;;;;;19.07;39.85;96192.69;10358293;28;97354;-69
2022/04/27 14:38:34;;;;;;;5.32;3.20;;;;;;;19.37;39.38;96189.69;10346187;28;97292;-69
2022/04/27 14:43:37;;;;;;;3.70;2.65;;;;;;;19.85;40.18;96185.97;10342415;28;96840;-69
2022/04/27 14:48:42;;;;;;;3.97;2.65;;;;;;;19.84;39.81;96187.81;10345673;28;96854;-70
2022/04/27 14:53:46;;;;;;;4.93;3.08;;;;;;;20.18;39.76;96184.06;10346283;28;97305;-70
2022/04/27 14:58:49;;;;;;;;;;;;;;;20.32;41.12;96176.84;10343053;28;96750;-70
2022/04/27 15:03:52;;;;;;;4.97;3.33;;;;;;;20.64;39.27;96173.44;10344853;28;96779;-69
2022/04/27 15:08:57;;;;;;;3.60;2.97;;;;;;;20.87;38.31;96172.91;10346766;28;96840;-69
2022/04/27 15:14:04;;;;;;;4.40;2.92;;;;;;;20.84;37.61;96170.69;10345378;28;97141;-70
2022/04/27 15:19:08;;;;;;;3.60;3.30;;;;;;;20.82;38.18;96167.44;10342033;28;97258;-70
2022/04/27 15:24:12;;;;;;;4.55;3.28;;;;;;;20.73;38.23;96166.84;10345952;28;96820;-70
2022/04/27 15:29:15;;;;;;;3.60;2.83;;;;;;;20.70;40.21;96173.41;10343510;28;96773;-70
2022/04/27 15:34:18;;;;;;;3.10;2.80;;;;;;;20.96;38.82;96168.97;10340150;28;98003;-69
2022/04/27 15:39:22;;;;;;;3.30;3.00;;;;;;;21.10;38.26;96167.88;10346398;28;96851;-69
2022/04/27 15:44:25;;;;;;;;;;;;;;;21.41;38.95;96176.78;10346922;28;96984;-69
2022/04/27 15:49:28;;;;;;;4.05;3.10;;;;;;;21.81;37.58;96172.97;10339851;28;96753;-69
2022/04/27 15:54:32;;;;;;;4.05;2.85;;;;;;;22.03;36.55;96176.03;10343813;28;97276;-70
2022/04/27 15:59:38;;;;;;;3.30;2.75;;;;;;;22.36;37.07;96170.31;10345624;28;97284;-70
2022/04/27 16:04:42;;;;;;;3.35;2.90;;;;;;;22.21;36.36;96178.69;10354073;28;96827;-70
2022/04/27 16:09:47;;;;;;;4.73;2.83;;;;;;;22.12;36.21;96180.00;10356003;28;96948;-70
2022/04/27 16:14:50;;;;;;;3.15;2.72;;;;;;;22.37;35.60;96179.09;10343333;28;96952;-70
2022/04/27 16:19:53;;;;;;;3.70;2.75;;;;;;;22.81;34.38;96174.47;10339051;28;96896;-69
2022/04/27 16:24:58;;;;;;;3.00;2.20;;;;;;;22.98;34.27;96174.66;10342632;28;96788;-70
2022/04/27 16:30:01;;;;;;;2.65;2.22;;;;;;;22.95;33.99;96178.56;10342655;28;96917;-69
2022/04/27 16:35:24;;;;;;;3.73;2.30;;;;;;;23.36;33.49;96174.28;10343020;28;96996;-69
2022/04/27 16:40:29;;;;;;;2.63;2.28;;;;;;;23.40;32.32;96173.84;10338342;28;96830;-70
2022/04/27 16:45:32;;;;;;;2.25;1.83;;;;;;;23.64;32.70;96167.47;10342291;28;96953;-69
2022/04/27 16:50:36;;;;;;;3.13;2.40;;;;;;;23.22;32.96;96167.53;10342234;28;96888;-70
2022/04/27 16:55:40;;;;;;;3.33;2.25;;;;;;;22.74;32.47;96171.09;10338951;28;97026;-69
2022/04/27 17:00:56;;;;;;;2.10;1.83;;;;;;;23.07;32.52;96175.13;10342443;28;97050;-69
2022/04/27 17:06:02;;;;;;;4.63;1.80;;;;;;;23.33;30.98;96179.25;10343682;28;96979;-69
2022/04/27 17:11:08;;;;;;;3.92;2.10;;;;;;;22.98;31.27;96180.78;10341627;28;98160;-70
2022/04/27 17:16:12;;;;;;;3.13;2.20;;;;;;;23.00;31.42;96176.03;10356857;28;98015;-69
2022/04/27 17:21:15;;;;;;;2.72;1.98;;;;;;;23.28;31.58;96181.81;10361765;28;96857;-69
2022/04/27 17:31:40;;;;;;;3.30;2.05;;;;;;;23.00;31.24;96191.22;10353744;28;96895;-69
2022/04/27 17:36:43;;;;;;;2.70;2.08;;;;;;;21.86;32.60;96189.91;10370317;28;97065;-69
2022/04/27 17:41:48;;;;;;;3.03;2.20;;;;;;;20.79;33.89;96194.41;10367455;28;96963;-69
2022/04/27 17:46:51;;;;;;;2.67;2.03;;;;;;;19.61;36.32;96202.28;10365937;28;96892;-69
2022/04/27 17:51:54;;;;;;;3.92;2.20;;;;;;;18.50;38.51;96211.47;10373098;28;96901;-69
2022/04/27 17:56:59;;;;;;;3.00;2.30;;;;;;;17.76;40.07;96218.19;10350947;28;97147;-68
2022/04/27 18:02:02;;;;;;;;;;;;;;;17.08;40.22;96222.34;10363745;28;97157;-68
2022/04/27 18:07:05;;;;;;;3.40;2.30;;;;;;;16.43;42.62;96219.56;10372616;28;98719;-70
2022/04/27 18:12:11;;;;;;;2.65;2.05;;;;;;;15.93;43.80;96226.44;10374206;28;96830;-66
2022/04/27 18:17:14;;;;;;;3.47;2.53;;;;;;;15.60;44.81;96237.28;10367778;28;96862;-68
2022/04/27 18:22:18;;;;;;;3.80;2.22;;;;;;;15.32;44.87;96248.38;10367230;28;97289;-68
2022/04/27 18:27:22;;;;;;;6.60;3.47;;;;;;;15.02;46.59;96252.72;10366368;28;96903;-67
2022/04/27 18:32:26;;;;;;;3.50;2.88;;;;;;;14.78;46.42;96245.81;10362706;28;99582;-67
2022/04/27 18:37:30;;;;;;;3.40;2.60;;;;;;;14.47;47.89;96255.34;10345212;28;96805;-67
2022/04/27 18:42:35;;;;;;;3.90;2.53;;;;;;;14.20;48.18;96267.06;10371953;28;97224;-68
2022/04/27 18:52:59;;;;;;;5.50;3.85;;;;;;;13.81;48.34;96288.81;10357595;28;96899;-67
2022/04/27 18:58:03;;;;;;;3.30;2.38;;;;;;;13.56;48.91;96288.84;10343146;28;96909;-67
2022/04/27 19:03:06;;;;;;;22.00;10.32;;;;;;;13.25;49.40;96293.94;10351504;28;98867;-68
2022/04/27 19:08:11;;;;;;;7.53;4.07;;;;;;;12.90;50.32;96298.44;10356125;28;97676;-67
2022/04/27 19:13:15;;;;;;;3.65;2.72;;;;;;;12.48;51.07;96310.59;10353220;28;96723;-67
2022/04/27 19:18:18;;;;;;;3.47;2.30;;;;;;;12.11;51.70;96324.03;10344495;28;99737;-68
2022/04/27 19:23:21;;;;;;;2.45;2.10;;;;;;;11.76;51.95;96324.94;10344992;28;98834;-67
2022/04/27 19:28:26;;;;;;;4.93;2.50;;;;;;;11.51;51.84;96337.84;10358100;28;99956;-67
2022/04/27 19:33:29;;;;;;;3.35;2.10;;;;;;;11.29;52.21;96337.28;10344691;28;96741;-67
2022/04/27 19:38:36;;;;;;;2.47;2.00;;;;;;;11.10;52.49;96334.81;10338803;28;97277;-67
2022/04/27 19:43:40;;;;;;;3.40;2.00;;;;;;;10.95;52.63;96351.03;10346963;28;98897;-67
2022/04/27 19:48:43;;;;;;;2.40;1.97;;;;;;;10.87;52.14;96356.16;10348431;28;97039;-67
2022/04/27 19:53:52;;;;;;;3.67;2.35;;;;;;;10.76;52.49;96375.47;10339345;28;96745;-67
2022/04/27 19:58:57;;;;;;;3.22;2.30;;;;;;;10.89;52.31;96377.72;10347471;28;96912;-67
2022/04/27 20:04:00;;;;;;;3.88;2.20;;;;;;;10.67;52.93;96372.91;10356406;28;98022;-67
2022/04/27 20:09:06;;;;;;;2.60;2.20;;;;;;;10.43;53.28;96384.69;10343827;28;98012;-67
2022/04/27 20:14:10;;;;;;;;;;;;;;;10.37;52.89;96391.31;10378805;28;97834;-67
2022/04/27 20:19:14;;;;;;;2.60;2.20;;;;;;;10.31;53.01;96393.69;10351424;28;97506;-67
2022/04/27 20:24:17;;;;;;;3.05;2.15;;;;;;;10.26;52.72;96394.09;10369684;28;96887;-67
2022/04/27 20:29:22;;;;;;;4.38;2.05;;;;;;;10.13;53.22;96399.63;10359202;28;96852;-67
2022/04/27 20:34:26;;;;;;;4.00;2.92;;;;;;;10.01;53.28;96395.53;10355272;28;97039;-67
2022/04/27 20:39:29;;;;;;;3.20;2.20;;;;;;;10.01;53.35;96400.75;10364854;28;96761;-67
2022/04/27 20:44:33;;;;;;;3.67;2.50;;;;;;;9.93;53.99;96406.66;10357701;28;97796;-67
2022/04/27 20:49:39;;;;;;;2.80;2.10;;;;;;;9.83;54.07;96411.06;10356112;28;96819;-67
2022/04/27 20:54:45;;;;;;;2.92;2.10;;;;;;;9.82;53.90;96418.09;10362174;28;97255;-67
2022/04/27 20:59:49;;;;;;;4.63;2.13;;;;;;;9.88;53.77;96421.09;10356476;28;97529;-67
2022/04/27 21:04:52;;;;;;;;;;;;;;;9.91;53.52;96426.88;10354164;28;97618;-67
2022/04/27 21:09:55;;;;;;;4.13;2.80;;;;;;;9.89;53.28;96433.16;10354415;28;98438;-67
2022/04/27 21:14:59;;;;;;;4.32;3.33;;;;;;;9.77;54.54;96441.16;10358409;28;97287;-68
2022/04/27 21:20:03;;;;;;;9.27;5.37;;;;;;;9.44;55.80;96440.59;10358368;28;98281;-68
2022/04/27 21:25:07;;;;;;;7.32;5.25;;;;;;;9.19;57.09;96446.28;10363189;28;96947;-67
2022/04/27 21:30:12;;;;;;;6.28;4.00;;;;;;;8.91;57.95;96443.44;10360307;28;98091;-68
2022/04/27 21:35:15;;;;;;;7.28;3.95;;;;;;;8.78;57.84;96453.25;10360046;28;97942;-68
2022/04/27 21:40:17;;;;;;;5.32;3.42;;;;;;;8.66;58.41;96450.78;10364656;28;96741;-68
2022/04/27 21:45:22;;;;;;;3.85;3.30;;;;;;;8.65;58.16;96454.31;10356128;28;97273;-67
2022/04/27 21:50:25;;;;;;;4.40;3.17;;;;;;;8.64;58.29;96457.06;10362205;28;97252;-67
2022/04/27 21:55:28;;;;;;;3.65;2.75;;;;;;;8.63;58.29;96468.44;10365341;28;98328;-67
2022/04/27 22:06:00;;;;;;;3.63;2.40;;;;;;;8.40;58.60;96465.19;10326361;28;97004;-68
2022/04/27 22:11:04;;;;;;;4.03;3.00;;;;;;;8.34;59.06;96472.53;10350755;28;96852;-69
2022/04/27 22:16:10;;;;;;;5.15;3.50;;;;;;;8.34;58.54;96477.75;10344841;28;97377;-67
2022/04/27 22:21:14;;;;;;;5.53;2.97;;;;;;;8.37;58.28;96481.84;10350768;28;97034;-68
2022/04/27 22:26:17;;;;;;;2.95;2.65;;;;;;;8.46;58.17;96493.28;10358471;28;98823;-68
2022/04/27 22:31:21;;;;;;;4.47;2.70;;;;;;;8.31;58.83;96493.63;10383499;27;97072;-68
2022/04/27 22:36:25;;;;;;;3.33;2.60;;;;;;;8.20;59.15;96490.25;10363849;28;96909;-68
2022/04/27 22:41:28;;;;;;;4.47;3.63;;;;;;;8.02;59.52;96496.00;10355417;28;97209;-68
2022/04/27 22:46:32;;;;;;;4.15;3.35;;;;;;;7.91;59.35;96502.09;10360293;28;100528;-68
2022/04/27 22:51:35;;;;;;;3.80;3.23;;;;;;;7.78;60.01;96497.03;10356377;28;97032;-68
2022/04/27 22:56:38;;;;;;;4.85;3.63;;;;;;;7.68;60.63;96500.53;10357078;28;96890;-67
2022/04/27 23:01:42;;;;;;;5.80;3.53;;;;;;;7.57;60.96;96506.59;10364572;28;96818;-67
2022/04/27 23:06:45;;;;;;;5.67;3.00;;;;;;;7.41;60.79;96509.59;10362803;28;98389;-67
2022/04/27 23:11:48;;;;;;;4.45;3.10;;;;;;;7.38;60.80;96509.81;10357340;28;96869;-67
2022/04/27 23:16:52;;;;;;;3.58;2.90;;;;;;;7.29;61.81;96516.56;10362307;28;96830;-67
2022/04/27 23:21:55;;;;;;;5.43;3.67;;;;;;;7.21;62.28;96518.94;10361286;28;96858;-67
2022/04/27 23:26:59;;;;;;;4.43;3.40;;;;;;;7.14;62.47;96526.38;10344715;28;102600;-67
2022/04/27 23:32:04;;;;;;;5.93;2.95;;;;;;;7.08;63.50;96519.06;10339253;28;97024;-67
2022/04/27 23:37:08;;;;;;;3.77;3.00;;;;;;;6.95;63.48;96524.34;10350021;28;97251;-67
2022/04/27 23:42:11;;;;;;;4.85;3.28;;;;;;;6.89;63.63;96524.00;10342078;28;96719;-68
2022/04/27 23:47:15;;;;;;;3.45;2.60;;;;;;;6.83;63.66;96525.28;10337933;28;96780;-67
2022/04/27 23:52:18;;;;;;;4.30;3.17;;;;;;;6.78;63.65;96523.06;10350298;28;102902;-68
2022/04/27 23:57:21;;;;;;;6.25;3.53;;;;;;;6.65;63.65;96530.13;10336061;28;97524;-68
